Logo corporativo de la Dirección Meteorológica de chile Curacaví Ad.
Latitud : 33° 24' 40'' S - Longitud: 71° 10' 4'' W - Altura: 208Mts.
04:45 Local X
23-08-2017
Inicio Gráficos Datos Recientes Información Histórica
Temperatura Humedad Presión del Lugar Presión Nivel Mar
9.3 oC
90 %
995.1 hPas
1019.9 hPas
Temperaturas Extremas Viento Instantáneo Viento Promedio 10 Minutos Precipitación 24 Horas
Ver Gráfico
SE/01 kt
S/02 kt
0.0 mm
Gráficos últimas 24 Horas
Temperatura en oC


Razón de Mezcla de Vapor (gr / Kg)


Humedad en %


Presión Lugar en hPa. (QFE)


Precipitación en mm.


Dirección del Viento


Intensidada del Viento en kt.



Inicio Gráficos Datos Recientes Información Histórica

Promedios Horarios últimas 24 Horas
momento Ts (oC) Razó:n Mezcla (gr*1000/Kg) Hr (%) Presión Lugar (hPa)
23-08-2017 04:00 9.5 6.7 88 995.3
23-08-2017 03:00 9.9 6.8 88 995.3
23-08-2017 02:00 10.8 7.0 85 995.2
23-08-2017 01:00 11.1 6.8 81 995.0
23-08-2017 00:00 11.5 6.6 77 995.1
22-08-2017 23:00 11.6 6.5 75 995.0
22-08-2017 22:00 11.4 6.4 75 994.7
22-08-2017 21:00 11.3 6.5 77 994.5
22-08-2017 20:00 11.7 6.6 75 994.2
22-08-2017 19:00 12.3 6.6 72 994.0
22-08-2017 18:00 13.3 6.4 66 993.6
22-08-2017 17:00 13.3 6.4 66 993.1
22-08-2017 16:00 13.3 6.6 68 992.3
22-08-2017 15:00 13.2 6.7 69 991.4
22-08-2017 14:00 14.7 6.8 64 991.2
22-08-2017 13:00 12.5 7.0 76 991.9
22-08-2017 12:00 11.2 6.9 81 992.5
22-08-2017 11:00 9.2 6.9 93 992.7
22-08-2017 10:00 7.7 6.5 98 992.7
22-08-2017 09:00 7.0 6.2 98 993.0
22-08-2017 08:00 6.5 6.0 98 993.0
22-08-2017 07:00 6.6 6.0 97 992.4
22-08-2017 06:00 6.6 6.0 97 992.0
22-08-2017 05:00 5.5 5.5 96 991.7
22-08-2017 04:00 6.0 5.7 96 991.8
22-08-2017 03:00 5.7 5.6 95 991.2
22-08-2017 02:00 6.0 5.6 94 990.2
22-08-2017 01:00 6.7 5.9 94 990.2
22-08-2017 00:00 8.0 6.4 93 990.2
21-08-2017 23:00 9.6 6.8 90 989.9
21-08-2017 22:00 9.9 6.9 89 989.3
21-08-2017 21:00 11.6 7.3 84 988.8
21-08-2017 20:00 13.7 7.8 77 988.6
21-08-2017 19:00 16.8 8.2 67 988.6
21-08-2017 18:00 19.3 8.2 57 988.5
21-08-2017 17:00 21.7 7.9 48 988.0
21-08-2017 16:00 22.8 7.0 39 987.8
21-08-2017 15:00 23.1 7.5 41 988.3
21-08-2017 14:00 20.9 6.5 41 989.3
21-08-2017 13:00 19.1 6.0 42 990.5
21-08-2017 12:00 15.7 5.3 47 990.9
21-08-2017 11:00 12.7 5.4 58 991.1
21-08-2017 10:00 9.0 5.5 75 991.3
21-08-2017 09:00 5.1 5.0 89 991.5
21-08-2017 08:00 2.2 4.4 96 991.6
21-08-2017 07:00 2.1 4.4 96 991.8
21-08-2017 06:00 2.7 4.5 96 991.6
21-08-2017 05:00 3.2 4.7 96 991.7
21-08-2017 04:00 3.4 4.7 96 991.7
21-08-2017 03:00 3.9 4.9 96 992.3
21-08-2017 02:00 4.7 5.1 95 993.0
21-08-2017 01:00 5.1 5.2 94 993.3
21-08-2017 00:00 6.0 5.5 93 993.1
20-08-2017 23:00 6.6 5.7 92 993.4
20-08-2017 22:00 7.9 6.0 88 993.6
20-08-2017 21:00 9.3 6.3 85 993.4
20-08-2017 20:00 11.5 6.5 76 993.2
20-08-2017 19:00 15.2 6.4 59 993.5
20-08-2017 18:00 18.3 6.7 50 994.1
20-08-2017 17:00 19.6 7.0 48 994.5
20-08-2017 16:00 19.5 7.0 48 995.1
20-08-2017 15:00 18.6 7.0 52 995.9
20-08-2017 14:00 17.6 6.4 50 996.9
20-08-2017 13:00 15.3 6.5 59 997.8
20-08-2017 12:00 12.4 6.5 70 998.5
20-08-2017 11:00 9.9 6.0 78 998.9
20-08-2017 10:00 6.2 5.5 91 999.4
20-08-2017 09:00 3.4 4.8 97 1000.2
20-08-2017 08:00 0.9 4.0 97 1000.3
20-08-2017 07:00 1.0 4.0 97 1000.1
20-08-2017 06:00 1.4 4.1 97 1000.3
20-08-2017 05:00 1.9 4.3 97 1000.4
20-08-2017 04:00 2.2 4.4 97 1000.7


Inicio Gráficos Datos Recientes Información Histórica
Descarga Datos Históricos de la Estación
Año Conjunto de Datos Meses
Ene Feb Mar Abr May Jun Jul Ago Sep Oct Nov Dic
2015
Temperatura.csv.zip - - - - - -
AguaCaida.csv.zip - - - - - -
RadiacionGlobal.csv.zip - - - - - -
Viento.csv.zip - - - - - -
PresionHumedad.csv.zip - - - - - -
Nubosidad.csv.zip - - - - - - - - - - - -
Visibilidad.csv.zip - - - - - - - - - - - -
RangoOpticoMeteorologico.csv.zip - - - - - - - - - - - -

2016
Temperatura.csv.zip
AguaCaida.csv.zip
RadiacionGlobal.csv.zip
Viento.csv.zip
PresionHumedad.csv.zip
Nubosidad.csv.zip - - - - - - - - - - - -
Visibilidad.csv.zip - - - - - - - - - - - -
RangoOpticoMeteorologico.csv.zip - - - - - - - - - - - -

2017
Temperatura.csv.zip - - - - -
AguaCaida.csv.zip - - - - -
RadiacionGlobal.csv.zip - - - - -
Viento.csv.zip - - - - -
PresionHumedad.csv.zip - - - - -
Nubosidad.csv.zip - - - - - - - - - - - -
Visibilidad.csv.zip - - - - - - - - - - - -
RangoOpticoMeteorologico.csv.zip - - - - - - - - - - - -